createdAt,value
2019-03-23T00:00:30.142Z,14.07
2019-03-23T00:01:35.653Z,14.13
2019-03-23T00:02:41.181Z,14.13
2019-03-23T00:03:46.683Z,13.99
2019-03-23T00:04:52.194Z,13.94
2019-03-23T00:05:57.700Z,13.94
2019-03-23T00:07:03.220Z,13.95
2019-03-23T00:08:08.740Z,13.94
2019-03-23T00:09:14.243Z,13.84
2019-03-23T00:10:19.755Z,13.81
2019-03-23T00:11:25.270Z,13.80
2019-03-23T00:12:30.781Z,13.83
2019-03-23T00:13:36.299Z,13.79
2019-03-23T00:14:41.805Z,13.80
2019-03-23T00:15:47.320Z,13.83
2019-03-23T00:16:52.828Z,13.76
2019-03-23T00:17:58.338Z,13.77
2019-03-23T00:19:03.852Z,13.74
2019-03-23T00:20:09.367Z,13.70
2019-03-23T00:21:14.874Z,13.77
2019-03-23T00:22:20.392Z,13.74
2019-03-23T00:23:25.902Z,13.70
2019-03-23T00:24:31.420Z,13.70
2019-03-23T00:25:36.957Z,13.74
2019-03-23T00:26:42.438Z,13.65
2019-03-23T00:27:47.948Z,13.73
2019-03-23T00:28:53.458Z,13.65
2019-03-23T00:29:58.970Z,13.62
2019-03-23T00:31:04.485Z,13.63
2019-03-23T00:32:09.997Z,13.62
2019-03-23T00:33:15.512Z,13.62
2019-03-23T00:34:21.022Z,13.61
2019-03-23T00:35:26.540Z,13.62
2019-03-23T00:36:41.005Z,13.55
2019-03-23T00:37:37.559Z,13.55
2019-03-23T00:38:43.072Z,13.62
2019-03-23T00:39:48.578Z,13.58
2019-03-23T00:40:54.090Z,13.55
2019-03-23T00:41:59.613Z,13.52
2019-03-23T00:43:05.116Z,13.55
2019-03-23T00:44:10.636Z,13.49
2019-03-23T00:45:16.135Z,13.51
2019-03-23T00:46:21.656Z,13.46
2019-03-23T00:47:27.180Z,13.46
2019-03-23T00:48:32.675Z,13.43
2019-03-23T00:49:38.186Z,13.44
2019-03-23T00:50:43.699Z,13.36
2019-03-23T00:51:49.217Z,13.30
2019-03-23T00:52:54.719Z,13.43
2019-03-23T00:54:00.227Z,13.36
2019-03-23T00:55:05.743Z,13.37
2019-03-23T00:56:11.261Z,13.38
2019-03-23T00:57:16.765Z,13.32
2019-03-23T00:58:22.282Z,13.33
2019-03-23T00:59:27.789Z,13.29
2019-03-23T01:00:33.302Z,13.43
2019-03-23T01:01:38.816Z,13.37
2019-03-23T01:02:44.329Z,13.33
2019-03-23T01:03:49.841Z,13.38
2019-03-23T01:04:55.350Z,13.27
2019-03-23T01:06:00.862Z,13.33
2019-03-23T01:07:06.369Z,13.32
2019-03-23T01:08:11.904Z,13.40
2019-03-23T01:09:17.398Z,13.37
2019-03-23T01:10:22.909Z,13.37
2019-03-23T01:11:28.421Z,13.36
2019-03-23T01:12:33.942Z,13.27
2019-03-23T01:13:39.443Z,13.32
2019-03-23T01:14:44.954Z,13.29
2019-03-23T01:15:50.468Z,13.33
2019-03-23T01:16:55.978Z,13.25
2019-03-23T01:18:01.490Z,13.30
2019-03-23T01:19:06.999Z,13.25
2019-03-23T01:20:12.513Z,13.24
2019-03-23T01:21:18.023Z,13.21
2019-03-23T01:22:23.531Z,13.33
2019-03-23T01:23:29.046Z,13.20
2019-03-23T01:24:34.560Z,13.21
2019-03-23T01:25:40.069Z,13.15
2019-03-23T01:26:45.582Z,13.20
2019-03-23T01:27:51.102Z,13.14
2019-03-23T01:28:56.606Z,13.09
2019-03-23T01:30:02.120Z,13.15
2019-03-23T01:31:07.628Z,13.11
2019-03-23T01:32:13.141Z,13.07
2019-03-23T01:33:18.655Z,13.04
2019-03-23T01:34:24.167Z,13.04
2019-03-23T01:35:29.676Z,12.93
2019-03-23T01:36:35.189Z,13.03
2019-03-23T01:37:40.706Z,12.89
2019-03-23T01:38:46.211Z,12.88
2019-03-23T01:39:51.723Z,12.85
2019-03-23T01:40:57.232Z,12.87
2019-03-23T01:42:02.755Z,12.89
2019-03-23T01:43:08.248Z,12.87
2019-03-23T01:44:13.764Z,12.79
2019-03-23T01:45:19.277Z,12.84
2019-03-23T01:46:24.799Z,12.78
2019-03-23T01:47:30.301Z,12.77
2019-03-23T01:48:35.810Z,12.79
2019-03-23T01:49:41.323Z,12.79
2019-03-23T01:50:46.837Z,12.81
2019-03-23T01:51:52.356Z,12.81
2019-03-23T01:52:57.857Z,12.92
2019-03-23T01:54:03.369Z,12.87
2019-03-23T01:55:08.886Z,12.81
2019-03-23T01:56:14.391Z,12.84
2019-03-23T01:57:19.907Z,12.82
2019-03-23T01:58:25.412Z,12.77
2019-03-23T01:59:30.928Z,12.79
2019-03-23T02:00:36.436Z,12.79
2019-03-23T02:01:41.945Z,12.81
2019-03-23T02:02:47.629Z,12.79
2019-03-23T02:03:52.968Z,12.71
2019-03-23T02:04:58.490Z,12.77
2019-03-23T02:06:03.995Z,12.75
2019-03-23T02:07:13.793Z,12.77
2019-03-23T02:08:15.016Z,12.75
2019-03-23T02:09:20.527Z,12.70
2019-03-23T02:10:26.045Z,12.70
2019-03-23T02:11:31.547Z,12.70
2019-03-23T02:12:37.059Z,12.57
2019-03-23T02:13:42.572Z,12.63
2019-03-23T02:14:48.085Z,12.59
2019-03-23T02:15:53.601Z,12.59
2019-03-23T02:16:59.115Z,12.57
2019-03-23T02:18:04.615Z,12.62
2019-03-23T02:19:10.135Z,12.51
2019-03-23T02:20:15.641Z,12.51
2019-03-23T02:21:21.147Z,12.56
2019-03-23T02:22:26.658Z,12.44
2019-03-23T02:23:32.169Z,12.39
2019-03-23T02:24:37.680Z,12.48
2019-03-23T02:25:43.191Z,12.46
2019-03-23T02:26:48.706Z,12.30
2019-03-23T02:27:54.212Z,12.29
2019-03-23T02:28:59.725Z,12.34
2019-03-23T02:30:05.238Z,12.27
2019-03-23T02:31:10.751Z,12.30
2019-03-23T02:32:16.327Z,12.26
2019-03-23T02:33:21.772Z,12.30
2019-03-23T02:34:27.284Z,12.12
2019-03-23T02:35:32.800Z,12.19
2019-03-23T02:36:38.301Z,12.15
2019-03-23T02:37:43.823Z,12.13
2019-03-23T02:38:49.340Z,12.12
2019-03-23T02:39:54.840Z,12.09
2019-03-23T02:41:00.345Z,12.05
2019-03-23T02:42:05.857Z,12.05
2019-03-23T02:43:11.368Z,11.99
2019-03-23T02:44:16.879Z,12.09
2019-03-23T02:45:22.396Z,12.01
2019-03-23T02:46:27.902Z,11.99
2019-03-23T02:47:33.414Z,12.08
2019-03-23T02:48:38.924Z,11.93
2019-03-23T02:49:44.442Z,11.93
2019-03-23T02:50:49.981Z,11.94
2019-03-23T02:51:55.454Z,11.93
2019-03-23T02:53:00.963Z,11.87
2019-03-23T02:54:06.479Z,11.82
2019-03-23T02:55:11.989Z,11.83
2019-03-23T02:56:17.515Z,11.82
2019-03-23T02:57:23.014Z,11.72
2019-03-23T02:58:28.527Z,11.74
2019-03-23T02:59:34.028Z,11.70
2019-03-23T03:00:39.539Z,11.65
2019-03-23T03:01:45.051Z,11.62
2019-03-23T03:02:50.564Z,11.70
2019-03-23T03:03:56.072Z,11.61
2019-03-23T03:05:01.598Z,11.54
2019-03-23T03:06:07.093Z,11.50
2019-03-23T03:07:12.602Z,11.44
2019-03-23T03:08:18.112Z,11.41
2019-03-23T03:09:23.623Z,11.35
2019-03-23T03:10:29.133Z,11.36
2019-03-23T03:11:34.645Z,11.25
2019-03-23T03:12:40.158Z,11.28
2019-03-23T03:13:45.669Z,11.27
2019-03-23T03:14:51.176Z,11.13
2019-03-23T03:15:56.683Z,11.13
2019-03-23T03:17:02.191Z,11.11
2019-03-23T03:18:07.710Z,11.02
2019-03-23T03:19:13.226Z,10.88
2019-03-23T03:20:18.727Z,10.81
2019-03-23T03:21:24.236Z,10.84
2019-03-23T03:22:29.747Z,10.81
2019-03-23T03:23:35.262Z,10.88
2019-03-23T03:24:40.766Z,10.83
2019-03-23T03:25:46.279Z,10.83
2019-03-23T03:26:51.788Z,10.73
2019-03-23T03:27:57.296Z,10.77
2019-03-23T03:29:02.803Z,10.70
2019-03-23T03:30:08.331Z,10.60
2019-03-23T03:31:13.838Z,10.65
2019-03-23T03:32:19.342Z,10.62
2019-03-23T03:33:24.847Z,10.60
2019-03-23T03:34:30.355Z,10.51
2019-03-23T03:35:35.870Z,10.55
2019-03-23T03:36:41.376Z,10.55
2019-03-23T03:37:56.434Z,10.47
2019-03-23T03:38:52.398Z,10.46
2019-03-23T03:39:57.905Z,10.47
2019-03-23T03:41:03.414Z,10.43
2019-03-23T03:42:08.924Z,10.37
2019-03-23T03:43:14.434Z,10.43
2019-03-23T03:44:19.942Z,10.32
2019-03-23T03:45:25.486Z,10.37
2019-03-23T03:46:30.963Z,10.33
2019-03-23T03:47:36.475Z,10.19
2019-03-23T03:48:41.981Z,10.25
2019-03-23T03:49:47.490Z,10.25
2019-03-23T03:50:53.000Z,10.25
2019-03-23T03:51:58.514Z,10.18
2019-03-23T03:53:04.023Z,10.26
2019-03-23T03:54:09.528Z,10.24
2019-03-23T03:55:15.039Z,10.25
2019-03-23T03:56:20.545Z,10.24
2019-03-23T03:57:26.058Z,10.25
2019-03-23T03:58:31.568Z,10.24
2019-03-23T03:59:37.076Z,10.25
2019-03-23T04:00:42.588Z,10.25
2019-03-23T04:01:48.096Z,10.21
2019-03-23T04:02:53.599Z,10.19
2019-03-23T04:03:59.113Z,10.24
2019-03-23T04:05:04.630Z,10.22
2019-03-23T04:06:10.132Z,10.24
2019-03-23T04:07:15.642Z,10.21
2019-03-23T04:08:21.161Z,10.28
2019-03-23T04:09:26.671Z,10.21
2019-03-23T04:10:32.174Z,10.28
2019-03-23T04:11:37.680Z,10.26
2019-03-23T04:12:43.188Z,10.21
2019-03-23T04:13:48.701Z,10.15
2019-03-23T04:14:54.205Z,10.19
2019-03-23T04:15:59.716Z,10.34
2019-03-23T04:17:05.226Z,10.32
2019-03-23T04:18:10.739Z,10.28
2019-03-23T04:19:16.247Z,10.33
2019-03-23T04:20:21.758Z,10.28
2019-03-23T04:21:27.269Z,10.37
2019-03-23T04:22:32.773Z,10.28
2019-03-23T04:23:38.281Z,10.30
2019-03-23T04:24:43.797Z,10.34
2019-03-23T04:25:49.315Z,10.25
2019-03-23T04:26:54.812Z,10.28
2019-03-23T04:28:00.320Z,10.24
2019-03-23T04:29:05.831Z,10.26
2019-03-23T04:30:11.352Z,10.25
2019-03-23T04:31:16.863Z,10.19
2019-03-23T04:32:22.371Z,10.21
2019-03-23T04:33:27.870Z,10.21
2019-03-23T04:34:33.375Z,10.15
2019-03-23T04:35:38.885Z,10.17
2019-03-23T04:36:44.399Z,10.19
2019-03-23T04:37:49.907Z,10.24
2019-03-23T04:38:55.421Z,10.24
2019-03-23T04:40:00.933Z,10.21
2019-03-23T04:41:06.437Z,10.19
2019-03-23T04:42:11.945Z,10.18
2019-03-23T04:43:17.451Z,10.19
2019-03-23T04:44:22.959Z,10.19
2019-03-23T04:45:28.472Z,10.24
2019-03-23T04:46:33.979Z,10.25
2019-03-23T04:47:39.492Z,10.15
2019-03-23T04:48:45.000Z,10.12
2019-03-23T04:49:50.515Z,10.18
2019-03-23T04:50:56.023Z,10.17
2019-03-23T04:52:01.531Z,10.12
2019-03-23T04:53:07.039Z,10.14
2019-03-23T04:54:12.550Z,10.06
2019-03-23T04:55:18.056Z,10.06
2019-03-23T04:56:23.564Z,10.06
2019-03-23T04:57:29.074Z,10.04
2019-03-23T04:58:34.586Z,10.07
2019-03-23T04:59:40.094Z,10.14
2019-03-23T05:00:45.605Z,10.10
2019-03-23T05:01:51.104Z,10.14
2019-03-23T05:02:56.621Z,10.06
2019-03-23T05:04:02.129Z,10.14
2019-03-23T05:05:07.650Z,10.06
2019-03-23T05:06:13.151Z,10.06
2019-03-23T05:07:18.656Z,10.09
2019-03-23T05:08:32.964Z,10.09
2019-03-23T05:09:29.686Z,10.15
2019-03-23T05:10:35.187Z,10.06
2019-03-23T05:11:40.697Z,10.12
2019-03-23T05:12:46.212Z,10.10
2019-03-23T05:13:51.714Z,10.07
2019-03-23T05:14:57.233Z,10.06
2019-03-23T05:16:02.733Z,10.10
2019-03-23T05:17:08.240Z,10.09
2019-03-23T05:18:13.753Z,10.10
2019-03-23T05:19:19.262Z,10.09
2019-03-23T05:20:24.778Z,10.12
2019-03-23T05:21:30.280Z,10.09
2019-03-23T05:22:35.788Z,10.09
2019-03-23T05:23:41.300Z,10.04
2019-03-23T05:24:46.807Z,10.12
2019-03-23T05:25:52.315Z,10.10
2019-03-23T05:26:57.827Z,10.06
2019-03-23T05:28:03.333Z,10.15
2019-03-23T05:29:08.845Z,10.07
2019-03-23T05:30:14.354Z,10.10
2019-03-23T05:31:19.862Z,10.15
2019-03-23T05:32:25.376Z,10.15
2019-03-23T05:33:30.884Z,10.19
2019-03-23T05:34:36.389Z,10.07
2019-03-23T05:35:41.903Z,10.07
2019-03-23T05:36:47.408Z,10.06
2019-03-23T05:37:52.922Z,10.18
2019-03-23T05:38:58.428Z,10.19
2019-03-23T05:40:03.939Z,10.14
2019-03-23T05:41:09.453Z,10.12
2019-03-23T05:42:14.959Z,10.14
2019-03-23T05:43:20.465Z,10.12
2019-03-23T05:44:25.975Z,10.06
2019-03-23T05:45:31.484Z,10.10
2019-03-23T05:46:36.997Z,10.10
2019-03-23T05:47:42.507Z,10.10
2019-03-23T05:48:48.015Z,10.09
2019-03-23T05:49:53.522Z,10.04
2019-03-23T05:50:59.031Z,10.06
2019-03-23T05:52:04.541Z,9.94
2019-03-23T05:53:10.053Z,10.01
2019-03-23T05:54:15.556Z,9.96
2019-03-23T05:55:21.066Z,10.03
2019-03-23T05:56:26.579Z,10.00
2019-03-23T05:57:32.087Z,9.99
2019-03-23T05:58:37.597Z,10.00
2019-03-23T05:59:43.110Z,10.01
2019-03-23T06:00:48.622Z,9.94
2019-03-23T06:01:54.123Z,10.00
2019-03-23T06:02:59.630Z,10.00
2019-03-23T06:04:05.139Z,9.94
2019-03-23T06:05:10.653Z,10.00
2019-03-23T06:06:16.173Z,9.99
2019-03-23T06:07:21.674Z,9.97
2019-03-23T06:08:27.180Z,9.93
2019-03-23T06:09:32.690Z,10.01
2019-03-23T06:10:38.198Z,10.03
2019-03-23T06:11:43.707Z,10.00
2019-03-23T06:12:49.223Z,10.01
2019-03-23T06:13:54.728Z,10.01
2019-03-23T06:15:00.418Z,10.03
2019-03-23T06:16:05.744Z,9.96
2019-03-23T06:17:11.251Z,9.96
2019-03-23T06:18:16.763Z,9.97
2019-03-23T06:19:22.268Z,10.00
2019-03-23T06:20:27.780Z,10.03
2019-03-23T06:21:33.286Z,10.01
2019-03-23T06:22:38.798Z,10.04
2019-03-23T06:23:44.309Z,10.10
2019-03-23T06:24:49.829Z,10.10
2019-03-23T06:25:55.332Z,10.10
2019-03-23T06:27:00.840Z,10.09
2019-03-23T06:28:06.345Z,10.04
2019-03-23T06:29:11.852Z,10.12
2019-03-23T06:30:17.363Z,10.10
2019-03-23T06:31:22.875Z,10.15
2019-03-23T06:32:28.385Z,10.18
2019-03-23T06:33:33.892Z,10.10
2019-03-23T06:34:39.400Z,10.09
2019-03-23T06:35:44.905Z,10.03
2019-03-23T06:36:50.420Z,10.14
2019-03-23T06:37:55.930Z,10.17
2019-03-23T06:39:05.757Z,10.17
2019-03-23T06:40:06.946Z,10.06
2019-03-23T06:41:12.459Z,10.24
2019-03-23T06:42:17.975Z,10.19
2019-03-23T06:43:23.475Z,10.26
2019-03-23T06:44:28.986Z,10.25
2019-03-23T06:45:34.493Z,10.24
2019-03-23T06:46:39.999Z,10.26
2019-03-23T06:47:45.537Z,10.24
2019-03-23T06:48:51.021Z,10.15
2019-03-23T06:49:56.534Z,10.10
2019-03-23T06:51:03.285Z,10.18
2019-03-23T06:52:07.545Z,10.15
2019-03-23T06:53:13.058Z,10.19
2019-03-23T06:54:18.566Z,10.21
2019-03-23T06:55:24.078Z,10.30
2019-03-23T06:56:29.585Z,10.21
2019-03-23T06:57:35.093Z,10.30
2019-03-23T06:58:40.603Z,10.36
2019-03-23T06:59:46.119Z,10.39
2019-03-23T07:00:51.629Z,10.33
2019-03-23T07:01:57.135Z,10.42
2019-03-23T07:03:02.639Z,10.37
2019-03-23T07:04:08.150Z,10.43
2019-03-23T07:05:13.659Z,10.39
2019-03-23T07:06:19.169Z,10.34
2019-03-23T07:07:24.679Z,10.46
2019-03-23T07:08:32.225Z,10.44
2019-03-23T07:09:35.694Z,10.46
2019-03-23T07:10:41.207Z,10.47
2019-03-23T07:11:46.712Z,10.47
2019-03-23T07:12:52.224Z,10.52
2019-03-23T07:13:57.734Z,10.55
2019-03-23T07:15:03.244Z,10.55
2019-03-23T07:16:08.751Z,10.58
2019-03-23T07:17:14.262Z,10.56
2019-03-23T07:18:19.780Z,10.46
2019-03-23T07:19:25.287Z,10.42
2019-03-23T07:20:30.792Z,10.43
2019-03-23T07:21:36.298Z,10.52
2019-03-23T07:22:41.810Z,10.53
2019-03-23T07:23:47.318Z,10.55
2019-03-23T07:24:52.832Z,10.53
2019-03-23T07:25:58.336Z,10.55
2019-03-23T07:27:03.845Z,10.62
2019-03-23T07:28:09.358Z,10.63
2019-03-23T07:29:14.866Z,10.58
2019-03-23T07:30:20.382Z,10.58
2019-03-23T07:31:25.881Z,10.73
2019-03-23T07:32:31.391Z,10.71
2019-03-23T07:33:36.903Z,10.65
2019-03-23T07:34:42.412Z,10.73
2019-03-23T07:35:47.953Z,10.77
2019-03-23T07:36:53.432Z,10.73
2019-03-23T07:37:58.948Z,10.80
2019-03-23T07:39:04.455Z,10.76
2019-03-23T07:40:09.958Z,10.76
2019-03-23T07:41:15.473Z,10.80
2019-03-23T07:42:20.981Z,10.84
2019-03-23T07:43:26.487Z,10.78
2019-03-23T07:44:31.998Z,10.81
2019-03-23T07:45:37.508Z,10.91
2019-03-23T07:46:43.020Z,10.81
2019-03-23T07:47:48.526Z,10.92
2019-03-23T07:48:54.046Z,10.81
2019-03-23T07:49:59.551Z,10.78
2019-03-23T07:51:05.057Z,10.78
2019-03-23T07:52:10.564Z,10.91
2019-03-23T07:53:16.089Z,10.89
2019-03-23T07:54:21.583Z,10.84
2019-03-23T07:55:27.101Z,10.91
2019-03-23T07:56:32.613Z,10.92
2019-03-23T07:57:38.120Z,10.92
2019-03-23T07:58:43.633Z,10.99
2019-03-23T07:59:49.138Z,10.95
2019-03-23T08:00:54.642Z,10.94
2019-03-23T08:02:00.156Z,10.99
2019-03-23T08:03:05.662Z,11.02
2019-03-23T08:04:11.172Z,10.95
2019-03-23T08:05:16.684Z,11.03
2019-03-23T08:06:22.194Z,11.01
2019-03-23T08:07:27.702Z,11.06
2019-03-23T08:08:33.208Z,11.07
2019-03-23T08:09:38.723Z,11.13
2019-03-23T08:10:44.230Z,11.13
2019-03-23T08:11:49.740Z,11.10
2019-03-23T08:12:55.261Z,11.19
2019-03-23T08:14:00.763Z,11.14
2019-03-23T08:15:06.274Z,11.20
2019-03-23T08:16:11.783Z,11.27
2019-03-23T08:17:17.304Z,11.25
2019-03-23T08:18:22.800Z,11.27
2019-03-23T08:19:28.314Z,11.32
2019-03-23T08:20:33.821Z,11.25
2019-03-23T08:21:39.332Z,11.35
2019-03-23T08:22:44.844Z,11.38
2019-03-23T08:23:50.351Z,11.41
2019-03-23T08:24:55.865Z,11.35
2019-03-23T08:26:01.371Z,11.36
2019-03-23T08:27:06.880Z,11.36
2019-03-23T08:28:12.394Z,11.36
2019-03-23T08:29:17.907Z,11.39
2019-03-23T08:30:23.420Z,11.41
2019-03-23T08:31:28.920Z,11.36
2019-03-23T08:32:34.432Z,11.41
2019-03-23T08:33:39.946Z,11.41
2019-03-23T08:34:45.455Z,11.46
2019-03-23T08:35:50.961Z,11.46
2019-03-23T08:36:56.470Z,11.50
2019-03-23T08:38:01.978Z,11.52
2019-03-23T08:39:07.491Z,11.56
2019-03-23T08:40:13.003Z,11.52
2019-03-23T08:41:18.512Z,11.53
2019-03-23T08:42:24.020Z,11.56
2019-03-23T08:43:29.532Z,11.50
2019-03-23T08:44:35.040Z,11.52
2019-03-23T08:45:40.551Z,11.57
2019-03-23T08:46:46.385Z,11.52
2019-03-23T08:47:51.577Z,11.56
2019-03-23T08:48:57.080Z,11.52
2019-03-23T08:50:02.592Z,11.50
2019-03-23T08:51:08.102Z,11.53
2019-03-23T08:52:13.606Z,11.59
2019-03-23T08:53:19.120Z,11.56
2019-03-23T08:54:24.634Z,11.64
2019-03-23T08:55:30.142Z,11.67
2019-03-23T08:56:37.359Z,11.64
2019-03-23T08:57:41.482Z,11.68
2019-03-23T08:58:46.669Z,11.61
2019-03-23T08:59:52.184Z,11.74
2019-03-23T09:00:57.695Z,11.68
2019-03-23T09:02:03.207Z,11.68
2019-03-23T09:03:08.714Z,11.70
2019-03-23T09:04:14.219Z,11.72
2019-03-23T09:05:19.737Z,11.68
2019-03-23T09:06:25.244Z,11.78
2019-03-23T09:07:30.750Z,11.82
2019-03-23T09:08:36.278Z,11.89
2019-03-23T09:09:41.772Z,11.90
2019-03-23T09:10:47.293Z,11.94
2019-03-23T09:11:52.798Z,11.90
2019-03-23T09:12:58.307Z,11.94
2019-03-23T09:14:03.810Z,11.87
2019-03-23T09:15:09.324Z,11.93
2019-03-23T09:16:14.836Z,11.93
2019-03-23T09:17:20.346Z,12.08
2019-03-23T09:18:25.854Z,12.02
2019-03-23T09:19:31.367Z,12.08
2019-03-23T09:20:36.878Z,11.99
2019-03-23T09:21:42.385Z,12.09
2019-03-23T09:22:47.898Z,12.02
2019-03-23T09:23:53.409Z,12.02
2019-03-23T09:24:58.921Z,12.06
2019-03-23T09:26:04.436Z,12.04
2019-03-23T09:27:09.942Z,12.12
2019-03-23T09:28:15.452Z,12.16
2019-03-23T09:29:20.954Z,12.11
2019-03-23T09:30:26.467Z,12.21
2019-03-23T09:31:31.990Z,12.08
2019-03-23T09:32:37.498Z,12.13
2019-03-23T09:33:43.011Z,12.13
2019-03-23T09:34:48.507Z,12.11
2019-03-23T09:35:54.021Z,12.15
2019-03-23T09:36:59.545Z,12.16
2019-03-23T09:38:05.045Z,12.21
2019-03-23T09:39:10.553Z,12.09
2019-03-23T09:40:16.065Z,12.11
2019-03-23T09:41:21.583Z,12.15
2019-03-23T09:42:27.088Z,12.13
2019-03-23T09:43:32.603Z,12.15
2019-03-23T09:44:38.104Z,12.13
2019-03-23T09:45:43.611Z,12.15
2019-03-23T09:46:49.127Z,12.15
2019-03-23T09:47:54.642Z,12.16
2019-03-23T09:49:00.152Z,12.15
2019-03-23T09:50:05.655Z,12.12
2019-03-23T09:51:11.179Z,12.13
2019-03-23T09:52:16.679Z,12.12
2019-03-23T09:53:22.195Z,12.19
2019-03-23T09:54:27.703Z,12.16
2019-03-23T09:55:33.207Z,12.12
2019-03-23T09:56:38.711Z,12.21
2019-03-23T09:57:44.229Z,12.21
2019-03-23T09:58:49.748Z,12.26
2019-03-23T09:59:55.256Z,12.30
2019-03-23T10:01:00.761Z,12.31
2019-03-23T10:02:06.274Z,12.29
2019-03-23T10:03:11.784Z,12.26
2019-03-23T10:04:17.296Z,12.31
2019-03-23T10:05:22.805Z,12.26
2019-03-23T10:06:28.319Z,12.26
2019-03-23T10:07:33.830Z,12.39
2019-03-23T10:08:39.341Z,12.48
2019-03-23T10:09:44.852Z,12.37
2019-03-23T10:10:50.367Z,12.38
2019-03-23T10:11:55.873Z,12.39
2019-03-23T10:13:01.376Z,12.41
2019-03-23T10:14:06.893Z,12.37
2019-03-23T10:15:12.405Z,12.26
2019-03-23T10:16:17.912Z,12.41
2019-03-23T10:17:23.425Z,12.45
2019-03-23T10:18:28.933Z,12.42
2019-03-23T10:19:34.443Z,12.34
2019-03-23T10:20:39.954Z,12.46
2019-03-23T10:21:45.468Z,12.49
2019-03-23T10:22:50.970Z,12.51
2019-03-23T10:23:56.481Z,12.42
2019-03-23T10:25:01.998Z,12.51
2019-03-23T10:26:07.524Z,12.51
2019-03-23T10:27:13.016Z,12.54
2019-03-23T10:28:18.532Z,12.60
2019-03-23T10:29:24.038Z,12.54
2019-03-23T10:30:29.554Z,12.56
2019-03-23T10:31:35.073Z,12.56
2019-03-23T10:32:40.571Z,12.51
2019-03-23T10:33:46.074Z,12.56
2019-03-23T10:34:51.594Z,12.56
2019-03-23T10:35:57.103Z,12.52
2019-03-23T10:37:02.618Z,12.54
2019-03-23T10:38:08.120Z,12.49
2019-03-23T10:39:13.631Z,12.54
2019-03-23T10:40:19.144Z,12.41
2019-03-23T10:41:24.657Z,12.44
2019-03-23T10:42:30.170Z,12.45
2019-03-23T10:43:35.674Z,12.54
2019-03-23T10:44:41.186Z,12.57
2019-03-23T10:45:46.698Z,12.51
2019-03-23T10:46:52.205Z,12.56
2019-03-23T10:49:03.251Z,12.49
2019-03-23T10:50:08.745Z,12.60
2019-03-23T10:51:14.250Z,12.60
2019-03-23T10:52:19.762Z,12.60
2019-03-23T10:53:25.277Z,12.71
2019-03-23T10:54:30.778Z,12.75
2019-03-23T10:55:36.293Z,12.79
2019-03-23T10:56:41.801Z,12.93
2019-03-23T10:57:47.316Z,12.97
2019-03-23T10:58:52.820Z,13.09
2019-03-23T10:59:58.359Z,13.17
2019-03-23T11:01:03.857Z,13.27
2019-03-23T11:02:09.358Z,13.33
2019-03-23T11:03:14.867Z,13.36
2019-03-23T11:04:20.378Z,13.36
2019-03-23T11:05:25.895Z,13.43
2019-03-23T11:06:31.401Z,13.41
2019-03-23T11:07:36.912Z,13.52
2019-03-23T11:08:42.424Z,13.46
2019-03-23T11:09:47.932Z,13.49
2019-03-23T11:10:53.453Z,13.52
2019-03-23T11:11:58.955Z,13.52
2019-03-23T11:13:04.470Z,13.56
2019-03-23T11:14:09.984Z,13.63
2019-03-23T11:15:15.493Z,13.69
2019-03-23T11:16:20.996Z,13.80
2019-03-23T11:17:26.510Z,13.92
2019-03-23T11:18:32.027Z,13.94
2019-03-23T11:19:37.531Z,14.06
2019-03-23T11:20:43.063Z,14.13
2019-03-23T11:21:48.561Z,14.21
2019-03-23T11:22:54.066Z,14.31
2019-03-23T11:23:59.594Z,14.31
2019-03-23T11:25:05.106Z,14.31
2019-03-23T11:26:10.602Z,14.39
2019-03-23T11:27:16.116Z,14.43
2019-03-23T11:28:21.623Z,14.44
2019-03-23T11:29:27.137Z,14.50
2019-03-23T11:30:32.662Z,14.52
2019-03-23T11:31:38.161Z,14.47
2019-03-23T11:32:43.703Z,14.54
2019-03-23T11:33:49.183Z,14.61
2019-03-23T11:34:54.714Z,14.60
2019-03-23T11:36:00.207Z,14.65
2019-03-23T11:37:05.831Z,14.67
2019-03-23T11:38:11.240Z,14.67
2019-03-23T11:39:16.743Z,14.64
2019-03-23T11:40:22.254Z,14.57
2019-03-23T11:41:27.782Z,14.47
2019-03-23T11:42:33.289Z,14.57
2019-03-23T11:43:38.790Z,14.54
2019-03-23T11:44:44.340Z,14.65
2019-03-23T11:45:49.803Z,14.69
2019-03-23T11:46:55.334Z,14.74
2019-03-23T11:48:00.842Z,14.74
2019-03-23T11:49:06.354Z,14.86
2019-03-23T11:50:11.876Z,14.98
2019-03-23T11:51:17.374Z,14.99
2019-03-23T11:52:22.889Z,15.05
2019-03-23T11:53:28.398Z,15.08
2019-03-23T11:54:33.909Z,15.02
2019-03-23T11:55:39.419Z,15.20
2019-03-23T11:56:44.930Z,15.33
2019-03-23T11:57:50.452Z,15.41
2019-03-23T11:58:55.975Z,15.43
2019-03-23T12:00:01.481Z,15.56
2019-03-23T12:01:06.983Z,15.56
2019-03-23T12:02:12.500Z,15.63
2019-03-23T12:03:18.011Z,15.66
2019-03-23T12:04:24.983Z,15.70
2019-03-23T12:05:29.032Z,15.66
2019-03-23T12:06:34.546Z,15.61
2019-03-23T12:07:40.060Z,15.81
2019-03-23T12:08:45.569Z,15.85
2019-03-23T12:09:51.082Z,15.96
2019-03-23T12:11:02.812Z,16.07
2019-03-23T12:12:02.109Z,16.07
2019-03-23T12:13:07.620Z,16.18
2019-03-23T12:14:13.134Z,16.25
2019-03-23T12:15:18.651Z,16.35
2019-03-23T12:16:24.160Z,16.31
2019-03-23T12:17:29.671Z,16.45
2019-03-23T12:18:35.183Z,16.65
2019-03-23T12:19:40.704Z,16.67
2019-03-23T12:20:46.207Z,16.80
2019-03-23T12:21:51.722Z,16.95
2019-03-23T12:22:57.243Z,16.90
2019-03-23T12:24:02.747Z,16.99
2019-03-23T12:25:08.262Z,16.95
2019-03-23T12:26:13.776Z,16.99
2019-03-23T12:27:19.281Z,17.04
2019-03-23T12:28:24.804Z,17.06
2019-03-23T12:29:30.321Z,16.95
2019-03-23T12:30:35.829Z,16.95
2019-03-23T12:31:41.341Z,16.92
2019-03-23T12:32:46.852Z,16.98
2019-03-23T12:33:52.370Z,16.93
2019-03-23T12:34:57.877Z,16.92
2019-03-23T12:36:03.391Z,16.98
2019-03-23T12:37:08.909Z,16.92
2019-03-23T12:38:14.429Z,17.07
2019-03-23T12:39:19.933Z,16.99
2019-03-23T12:40:25.449Z,17.17
2019-03-23T12:41:30.960Z,17.18
2019-03-23T12:42:36.473Z,17.15
2019-03-23T12:43:42.040Z,17.23
2019-03-23T12:44:47.500Z,17.11
2019-03-23T12:45:53.013Z,17.14
2019-03-23T12:46:58.527Z,17.23
2019-03-23T12:48:04.040Z,17.22
2019-03-23T12:49:09.554Z,17.25
2019-03-23T12:50:15.069Z,17.30
2019-03-23T12:51:20.577Z,17.23
2019-03-23T12:52:26.104Z,17.20
2019-03-23T12:53:31.616Z,17.18
2019-03-23T12:54:37.121Z,17.22
2019-03-23T12:55:42.633Z,17.28
2019-03-23T12:56:48.149Z,17.14
2019-03-23T12:57:53.665Z,17.15
2019-03-23T12:58:59.186Z,17.08
2019-03-23T13:00:04.691Z,17.10
2019-03-23T13:01:10.207Z,17.04
2019-03-23T13:02:15.717Z,17.04
2019-03-23T13:03:21.226Z,16.98
2019-03-23T13:04:26.745Z,16.93
2019-03-23T13:05:32.258Z,16.80
2019-03-23T13:06:37.772Z,16.88
2019-03-23T13:07:43.281Z,16.81
2019-03-23T13:08:48.814Z,16.86
2019-03-23T13:09:54.327Z,16.74
2019-03-23T13:10:59.825Z,16.67
2019-03-23T13:12:05.336Z,16.73
2019-03-23T13:13:10.856Z,16.81
2019-03-23T13:14:16.366Z,16.83
2019-03-23T13:15:21.876Z,16.89
2019-03-23T13:16:27.395Z,16.78
2019-03-23T13:17:32.915Z,16.92
2019-03-23T13:18:38.418Z,16.98
2019-03-23T13:19:43.931Z,16.99
2019-03-23T13:20:49.457Z,16.93
2019-03-23T13:21:54.957Z,16.98
2019-03-23T13:23:00.472Z,17.00
2019-03-23T13:24:05.985Z,17.13
2019-03-23T13:25:11.506Z,17.08
2019-03-23T13:26:17.015Z,17.10
2019-03-23T13:27:22.530Z,17.18
2019-03-23T13:28:28.049Z,17.08
2019-03-23T13:29:33.555Z,17.10
2019-03-23T13:30:39.079Z,17.17
2019-03-23T13:31:44.580Z,17.00
2019-03-23T13:32:50.100Z,17.00
2019-03-23T13:33:55.605Z,17.08
2019-03-23T13:35:01.123Z,17.04
2019-03-23T13:36:06.635Z,16.99
2019-03-23T13:37:12.149Z,16.99
2019-03-23T13:38:17.663Z,16.89
2019-03-23T13:39:23.174Z,16.99
2019-03-23T13:40:28.694Z,16.88
2019-03-23T13:41:34.208Z,16.89
2019-03-23T13:42:39.717Z,16.93
2019-03-23T13:43:45.230Z,16.81
2019-03-23T13:44:50.746Z,16.67
2019-03-23T13:45:56.267Z,16.70
2019-03-23T13:47:01.769Z,16.67
2019-03-23T13:48:07.286Z,16.65
2019-03-23T13:49:12.807Z,16.71
2019-03-23T13:50:18.314Z,16.75
2019-03-23T13:51:23.835Z,16.71
2019-03-23T13:52:29.333Z,16.67
2019-03-23T13:53:34.859Z,16.59
2019-03-23T13:54:40.362Z,16.50
2019-03-23T13:55:45.879Z,16.40
2019-03-23T13:56:51.402Z,16.44
2019-03-23T13:57:56.911Z,16.40
2019-03-23T13:59:02.423Z,16.35
2019-03-23T14:00:07.932Z,16.35
2019-03-23T14:01:13.444Z,16.27
2019-03-23T14:02:18.960Z,16.27
2019-03-23T14:03:24.471Z,16.35
2019-03-23T14:04:29.987Z,16.18
2019-03-23T14:05:35.503Z,16.18